createdAt,value
2023-09-02T00:00:58.401Z,17.76
2023-09-02T00:01:59.498Z,17.73
2023-09-02T00:02:59.786Z,17.75
2023-09-02T00:03:59.902Z,17.76
2023-09-02T00:05:00.551Z,17.79
2023-09-02T00:06:01.303Z,17.79
2023-09-02T00:07:02.049Z,17.79
2023-09-02T00:08:02.569Z,17.8
2023-09-02T00:09:03.694Z,17.82
2023-09-02T00:10:04.228Z,17.75
2023-09-02T00:11:04.992Z,17.75
2023-09-02T00:12:05.688Z,17.79
2023-09-02T00:13:05.986Z,17.76
2023-09-02T00:14:06.609Z,17.72
2023-09-02T00:15:07.733Z,17.71
2023-09-02T00:16:08.225Z,17.69
2023-09-02T00:17:09.224Z,17.75
2023-09-02T00:18:10.010Z,17.73
2023-09-02T00:19:10.759Z,17.69
2023-09-02T00:20:11.376Z,17.63
2023-09-02T00:21:12.097Z,17.73
2023-09-02T00:22:13.219Z,17.71
2023-09-02T00:23:12.937Z,17.75
2023-09-02T00:24:14.185Z,17.75
2023-09-02T00:25:14.712Z,17.69
2023-09-02T00:26:15.232Z,17.72
2023-09-02T00:27:15.970Z,17.63
2023-09-02T00:28:16.701Z,17.63
2023-09-02T00:29:17.420Z,17.69
2023-09-02T00:30:17.642Z,17.57
2023-09-02T00:31:18.378Z,17.63
2023-09-02T00:32:18.894Z,17.52
2023-09-02T00:33:19.811Z,17.63
2023-09-02T00:34:19.447Z,17.59
2023-09-02T00:35:20.363Z,17.52
2023-09-02T00:36:20.715Z,17.56
2023-09-02T00:37:21.467Z,17.57
2023-09-02T00:38:22.169Z,17.53
2023-09-02T00:39:22.481Z,17.52
2023-09-02T00:40:22.928Z,17.49
2023-09-02T00:41:23.636Z,17.49
2023-09-02T00:42:24.388Z,17.47
2023-09-02T00:43:24.664Z,17.5
2023-09-02T00:44:25.382Z,17.41
2023-09-02T00:45:26.047Z,17.41
2023-09-02T00:46:26.254Z,17.46
2023-09-02T00:47:27.179Z,17.37
2023-09-02T00:48:27.053Z,17.49
2023-09-02T00:49:27.596Z,17.41
2023-09-02T00:50:28.884Z,17.39
2023-09-02T00:51:28.912Z,17.37
2023-09-02T00:52:29.430Z,17.44
2023-09-02T00:53:30.116Z,17.39
2023-09-02T00:54:31.274Z,17.44
2023-09-02T00:55:32.000Z,17.37
2023-09-02T00:56:32.511Z,17.39
2023-09-02T00:57:33.233Z,17.32
2023-09-02T00:58:33.933Z,17.35
2023-09-02T00:59:34.463Z,17.35
2023-09-02T01:00:35.480Z,17.32
2023-09-02T01:01:36.374Z,17.31
2023-09-02T01:02:36.878Z,17.32
2023-09-02T01:03:37.565Z,17.34
2023-09-02T01:04:37.592Z,17.3
2023-09-02T01:05:37.883Z,17.31
2023-09-02T01:06:39.379Z,17.31
2023-09-02T01:07:40.318Z,17.31
2023-09-02T01:08:40.852Z,17.3
2023-09-02T01:09:41.406Z,17.32
2023-09-02T01:10:42.009Z,17.28
2023-09-02T01:11:42.513Z,17.22
2023-09-02T01:12:43.046Z,17.3
2023-09-02T01:13:43.863Z,17.19
2023-09-02T01:14:44.653Z,17.2
2023-09-02T01:15:45.553Z,17.19
2023-09-02T01:16:46.764Z,17.19
2023-09-02T01:17:46.987Z,17.2
2023-09-02T01:18:46.817Z,17.23
2023-09-02T01:19:47.556Z,17.24
2023-09-02T01:20:48.227Z,17.24
2023-09-02T01:21:48.938Z,17.3
2023-09-02T01:22:50.110Z,17.17
2023-09-02T01:23:50.585Z,17.17
2023-09-02T01:24:51.038Z,17.14
2023-09-02T01:25:51.356Z,17.1
2023-09-02T01:26:51.847Z,17.12
2023-09-02T01:27:52.592Z,17.12
2023-09-02T01:28:53.298Z,17.14
2023-09-02T01:29:54.237Z,16.98
2023-09-02T01:30:54.769Z,17.16
2023-09-02T01:31:54.827Z,17.01
2023-09-02T01:32:56.004Z,17.1
2023-09-02T01:33:55.967Z,17.09
2023-09-02T01:34:56.907Z,17.02
2023-09-02T01:35:57.421Z,16.98
2023-09-02T01:36:57.990Z,17.02
2023-09-02T01:37:58.736Z,17.02
2023-09-02T01:38:59.475Z,16.92
2023-09-02T01:39:59.987Z,16.92
2023-09-02T01:41:00.403Z,16.91
2023-09-02T01:42:01.352Z,16.89
2023-09-02T01:43:01.694Z,16.89
2023-09-02T01:44:02.355Z,16.82
2023-09-02T01:45:02.887Z,16.83
2023-09-02T01:46:03.679Z,16.91
2023-09-02T01:47:03.533Z,16.83
2023-09-02T01:48:04.695Z,16.91
2023-09-02T01:49:04.832Z,16.84
2023-09-02T01:50:06.087Z,16.86
2023-09-02T01:51:06.572Z,16.91
2023-09-02T01:52:07.496Z,16.8
2023-09-02T01:53:08.207Z,16.83
2023-09-02T01:54:08.380Z,16.91
2023-09-02T01:55:09.829Z,16.82
2023-09-02T01:56:09.630Z,16.8
2023-09-02T01:57:10.333Z,16.77
2023-09-02T01:58:10.897Z,16.77
2023-09-02T01:59:11.628Z,16.77
2023-09-02T02:00:11.704Z,16.82
2023-09-02T02:01:12.937Z,16.84
2023-09-02T02:02:13.646Z,16.79
2023-09-02T02:03:14.846Z,16.82
2023-09-02T02:04:14.382Z,16.83
2023-09-02T02:05:15.353Z,16.83
2023-09-02T02:06:15.715Z,16.82
2023-09-02T02:07:16.645Z,16.79
2023-09-02T02:08:16.798Z,16.83
2023-09-02T02:09:17.488Z,16.77
2023-09-02T02:10:17.816Z,16.79
2023-09-02T02:11:18.850Z,16.77
2023-09-02T02:12:19.581Z,16.79
2023-09-02T02:13:20.878Z,16.82
2023-09-02T02:14:20.694Z,16.79
2023-09-02T02:15:21.842Z,16.84
2023-09-02T02:16:22.881Z,16.77
2023-09-02T02:17:23.274Z,16.77
2023-09-02T02:18:24.224Z,16.82
2023-09-02T02:19:24.473Z,16.76
2023-09-02T02:20:25.013Z,16.79
2023-09-02T02:21:25.833Z,16.83
2023-09-02T02:22:26.375Z,16.76
2023-09-02T02:25:28.243Z,16.79
2023-09-02T02:26:28.758Z,16.73
2023-09-02T02:27:29.461Z,16.79
2023-09-02T02:28:29.628Z,16.72
2023-09-02T02:29:29.580Z,16.65
2023-09-02T02:30:30.076Z,16.69
2023-09-02T02:31:30.886Z,16.66
2023-09-02T02:32:31.770Z,16.66
2023-09-02T02:33:31.939Z,16.69
2023-09-02T02:34:31.842Z,16.69
2023-09-02T02:35:32.815Z,16.73
2023-09-02T02:36:33.341Z,16.77
2023-09-02T02:37:34.240Z,16.62
2023-09-02T02:38:34.557Z,16.68
2023-09-02T02:39:35.257Z,16.64
2023-09-02T02:40:35.944Z,16.65
2023-09-02T02:41:36.383Z,16.76
2023-09-02T02:42:36.450Z,16.69
2023-09-02T02:43:37.166Z,16.69
2023-09-02T02:44:37.709Z,16.68
2023-09-02T02:45:38.563Z,16.72
2023-09-02T02:46:39.540Z,16.68
2023-09-02T02:47:40.325Z,16.69
2023-09-02T02:48:40.396Z,16.65
2023-09-02T02:49:40.939Z,16.64
2023-09-02T02:50:41.964Z,16.66
2023-09-02T02:51:42.607Z,16.72
2023-09-02T02:52:43.353Z,16.64
2023-09-02T02:53:43.677Z,16.64
2023-09-02T02:54:44.560Z,16.68
2023-09-02T02:55:45.334Z,16.66
2023-09-02T02:56:46.159Z,16.69
2023-09-02T02:57:46.287Z,16.64
2023-09-02T02:58:46.854Z,16.62
2023-09-02T02:59:47.157Z,16.69
2023-09-02T03:00:47.661Z,16.62
2023-09-02T03:01:48.157Z,16.68
2023-09-02T03:02:48.689Z,16.73
2023-09-02T03:03:49.124Z,16.64
2023-09-02T03:04:49.253Z,16.65
2023-09-02T03:05:50.080Z,16.68
2023-09-02T03:06:50.979Z,16.66
2023-09-02T03:07:51.481Z,16.62
2023-09-02T03:08:51.982Z,16.66
2023-09-02T03:09:52.685Z,16.64
2023-09-02T03:10:53.379Z,16.64
2023-09-02T03:11:53.830Z,16.66
2023-09-02T03:12:54.727Z,16.65
2023-09-02T03:13:55.467Z,16.59
2023-09-02T03:14:55.610Z,16.66
2023-09-02T03:15:56.581Z,16.65
2023-09-02T03:16:56.631Z,16.62
2023-09-02T03:17:57.339Z,16.64
2023-09-02T03:18:57.697Z,16.68
2023-09-02T04:03:25.079Z,16.34
2023-09-02T04:04:25.267Z,16.29
2023-09-02T04:05:26.392Z,16.29
2023-09-02T04:06:26.907Z,16.29
2023-09-02T04:07:27.668Z,16.29
2023-09-02T04:08:28.568Z,16.43
2023-09-02T04:09:29.056Z,16.26
2023-09-02T04:10:29.691Z,16.31
2023-09-02T04:11:30.414Z,16.28
2023-09-02T04:12:31.174Z,16.26
2023-09-02T04:13:31.197Z,16.34
2023-09-02T04:14:32.016Z,16.32
2023-09-02T04:15:32.706Z,16.34
2023-09-02T04:16:33.520Z,16.32
2023-09-02T04:17:35.467Z,16.34
2023-09-02T04:18:35.533Z,16.4
2023-09-02T04:19:35.590Z,16.31
2023-09-02T04:20:36.414Z,16.32
2023-09-02T04:21:36.580Z,16.36
2023-09-02T04:22:37.566Z,16.36
2023-09-02T04:23:38.243Z,16.36
2023-09-02T04:24:38.932Z,16.34
2023-09-02T04:25:39.620Z,16.4
2023-09-02T04:26:40.328Z,16.39
2023-09-02T04:27:40.857Z,16.36
2023-09-02T04:28:41.545Z,16.4
2023-09-02T04:29:42.077Z,16.31
2023-09-02T04:30:43.189Z,16.34
2023-09-02T04:31:43.321Z,16.34
2023-09-02T04:32:44.225Z,16.39
2023-09-02T04:33:44.047Z,16.39
2023-09-02T04:34:44.363Z,16.36
2023-09-02T04:35:44.659Z,16.29
2023-09-02T04:36:45.376Z,16.32
2023-09-02T04:37:46.198Z,16.37
2023-09-02T04:38:46.693Z,16.39
2023-09-02T04:39:47.368Z,16.36
2023-09-02T04:40:48.266Z,16.39
2023-09-02T04:41:48.966Z,16.32
2023-09-02T04:42:49.546Z,16.29
2023-09-02T04:43:50.778Z,16.36
2023-09-02T04:44:51.294Z,16.34
2023-09-02T04:45:52.118Z,16.29
2023-09-02T04:46:52.762Z,16.31
2023-09-02T04:47:53.923Z,16.37
2023-09-02T04:48:54.276Z,16.32
2023-09-02T04:49:54.118Z,16.32
2023-09-02T04:50:54.748Z,16.29
2023-09-02T04:51:55.524Z,16.32
2023-09-02T04:52:55.844Z,16.44
2023-09-02T04:53:56.740Z,16.37
2023-09-02T04:54:57.297Z,16.34
2023-09-02T04:55:57.593Z,16.36
2023-09-02T04:56:58.345Z,16.4
2023-09-02T04:57:59.316Z,16.4
2023-09-02T04:58:59.876Z,16.41
2023-09-02T05:00:00.378Z,16.41
2023-09-02T05:01:01.096Z,16.44
2023-09-02T05:02:01.241Z,16.43
2023-09-02T05:03:01.796Z,16.46
2023-09-02T05:04:01.673Z,16.5
2023-09-02T05:05:02.216Z,16.49
2023-09-02T05:06:02.891Z,16.5
2023-09-02T05:07:03.026Z,16.4
2023-09-02T05:08:03.955Z,16.43
2023-09-02T05:09:04.102Z,16.49
2023-09-02T05:10:04.206Z,16.51
2023-09-02T05:11:03.952Z,16.55
2023-09-02T05:12:04.875Z,16.57
2023-09-02T05:13:05.333Z,16.59
2023-09-02T05:14:06.165Z,16.64
2023-09-02T05:15:06.893Z,16.55
2023-09-02T05:16:07.128Z,16.57
2023-09-02T05:17:07.056Z,16.62
2023-09-02T05:18:08.281Z,16.57
2023-09-02T05:19:07.829Z,16.58
2023-09-02T05:20:09.093Z,16.59
2023-09-02T05:21:09.587Z,16.57
2023-09-02T05:22:10.329Z,16.58
2023-09-02T05:23:10.735Z,16.57
2023-09-02T05:24:11.072Z,16.62
2023-09-02T05:25:11.581Z,16.62
2023-09-02T05:26:12.308Z,16.65
2023-09-02T05:27:13.025Z,16.57
2023-09-02T05:28:13.974Z,16.59
2023-09-02T05:29:14.339Z,16.55
2023-09-02T05:30:15.260Z,16.65
2023-09-02T05:31:16.264Z,16.61
2023-09-02T05:32:16.132Z,16.64
2023-09-02T05:33:17.858Z,16.74
2023-09-02T05:34:18.197Z,16.68
2023-09-02T05:35:17.951Z,16.69
2023-09-02T05:36:18.508Z,16.74
2023-09-02T05:37:19.013Z,16.79
2023-09-02T05:38:19.936Z,16.86
2023-09-02T05:39:20.633Z,16.82
2023-09-02T05:40:21.644Z,16.83
2023-09-02T05:41:21.702Z,16.86
2023-09-02T05:42:22.191Z,16.84
2023-09-02T05:43:22.855Z,16.95
2023-09-02T05:44:22.579Z,16.89
2023-09-02T05:45:23.276Z,16.99
2023-09-02T05:46:24.375Z,16.94
2023-09-02T05:47:25.366Z,17.01
2023-09-02T05:48:25.645Z,17.05
2023-09-02T05:49:25.366Z,16.98
2023-09-02T05:50:26.055Z,17.02
2023-09-02T05:51:26.953Z,17.12
2023-09-02T05:52:27.469Z,17.14
2023-09-02T05:53:28.251Z,17.2
2023-09-02T05:54:27.987Z,17.2
2023-09-02T05:55:28.784Z,17.17
2023-09-02T05:56:29.488Z,17.28
2023-09-02T05:57:30.400Z,17.38
2023-09-02T05:58:30.524Z,17.34
2023-09-02T05:59:31.250Z,17.37
2023-09-02T06:00:32.302Z,17.41
2023-09-02T06:01:32.464Z,17.42
2023-09-02T06:02:33.320Z,17.39
2023-09-02T06:03:34.134Z,17.52
2023-09-02T06:04:34.229Z,17.53
2023-09-02T06:05:34.968Z,17.53
2023-09-02T06:06:38.059Z,17.69
2023-09-02T06:08:37.248Z,17.66
2023-09-02T06:09:38.153Z,17.72
2023-09-02T06:10:38.874Z,17.76
2023-09-02T06:11:39.497Z,17.82
2023-09-02T06:12:40.729Z,17.88
2023-09-02T06:13:41.255Z,17.9
2023-09-02T06:14:42.136Z,17.93
2023-09-02T06:15:42.648Z,17.91
2023-09-02T06:16:42.438Z,18.05
2023-09-02T06:17:43.109Z,18.06
2023-09-02T06:18:43.591Z,18
2023-09-02T06:19:44.272Z,18
2023-09-02T06:20:44.783Z,18.05
2023-09-02T06:21:45.487Z,18.18
2023-09-02T06:22:46.012Z,18.16
2023-09-02T06:23:46.823Z,18.18
2023-09-02T06:24:47.605Z,18.15
2023-09-02T06:25:48.093Z,18.31
2023-09-02T06:26:48.785Z,18.36
2023-09-02T06:27:49.705Z,18.3
2023-09-02T06:28:50.432Z,18.39
2023-09-02T06:29:51.455Z,18.57
2023-09-02T06:30:52.030Z,18.73
2023-09-02T06:31:53.056Z,18.94
2023-09-02T06:32:53.763Z,19.38
2023-09-02T06:33:54.527Z,19.63
2023-09-02T06:34:55.337Z,19.87
2023-09-02T06:35:56.049Z,20.1
2023-09-02T06:36:56.546Z,20.27
2023-09-02T06:37:57.517Z,20.44
2023-09-02T06:38:58.249Z,20.6
2023-09-02T06:39:58.973Z,20.82
2023-09-02T06:40:59.893Z,20.93
2023-09-02T06:42:00.883Z,21.14
2023-09-02T06:43:01.380Z,21.26
2023-09-02T06:44:02.052Z,21.38
2023-09-02T06:45:02.800Z,21.51
2023-09-02T06:46:03.524Z,21.68
2023-09-02T06:47:04.673Z,21.72
2023-09-02T06:48:05.584Z,21.89
2023-09-02T06:49:06.685Z,22.12
2023-09-02T06:50:06.493Z,22.04
2023-09-02T06:51:07.644Z,22.16
2023-09-02T06:52:08.391Z,22.21
2023-09-02T06:53:08.915Z,22.16
2023-09-02T06:54:09.667Z,22.08
2023-09-02T06:55:10.421Z,22.1
2023-09-02T06:56:10.984Z,22.08
2023-09-02T06:57:11.315Z,22.04
2023-09-02T06:58:12.256Z,22.14
2023-09-02T06:59:12.986Z,22.15
2023-09-02T07:00:13.716Z,22.31
2023-09-02T07:01:14.831Z,22.44
2023-09-02T07:02:14.829Z,22.76
2023-09-02T07:03:15.506Z,22.91
2023-09-02T07:04:16.813Z,23.18
2023-09-02T07:05:17.077Z,23.49
2023-09-02T07:06:17.818Z,23.76
2023-09-02T07:07:18.568Z,24.01
2023-09-02T07:08:19.079Z,24.21
2023-09-02T07:09:19.871Z,24.38
2023-09-02T07:10:20.480Z,24.38
2023-09-02T07:11:21.421Z,24.4
2023-09-02T07:12:21.370Z,24.41
2023-09-02T07:13:22.711Z,24.29
2023-09-02T07:14:23.360Z,24.26
2023-09-02T07:15:23.071Z,24.18
2023-09-02T07:16:23.992Z,24.16
2023-09-02T07:17:24.697Z,24.16
2023-09-02T07:18:25.462Z,24.07
2023-09-02T07:19:26.698Z,24.18
2023-09-02T07:20:26.835Z,24.22
2023-09-02T07:21:27.426Z,24.21
2023-09-02T07:22:28.135Z,24.28
2023-09-02T07:23:28.474Z,24.21
2023-09-02T07:24:29.605Z,24.28
2023-09-02T07:25:29.943Z,24.29
2023-09-02T07:26:30.684Z,24.32
2023-09-02T07:27:31.442Z,24.37
2023-09-02T07:28:32.364Z,24.44
2023-09-02T07:29:32.935Z,24.38
2023-09-02T07:30:33.867Z,24.26
2023-09-02T07:31:35.053Z,24.18
2023-09-02T07:32:35.612Z,24.18
2023-09-02T07:33:36.276Z,24.11
2023-09-02T07:34:36.643Z,24.21
2023-09-02T07:35:36.768Z,24.14
2023-09-02T07:36:37.692Z,24.14
2023-09-02T07:37:38.433Z,24.16
2023-09-02T07:38:41.639Z,24.19
2023-09-02T07:39:39.204Z,24.26
2023-09-02T07:40:40.135Z,24.43
2023-09-02T07:41:40.663Z,24.48
2023-09-02T07:42:41.375Z,24.55
2023-09-02T07:43:41.378Z,24.81
2023-09-02T07:44:42.217Z,24.82
2023-09-02T07:45:43.194Z,24.97
2023-09-02T07:46:44.000Z,25
2023-09-02T07:47:44.889Z,25.14
2023-09-02T07:48:45.696Z,25.24
2023-09-02T07:49:46.722Z,25.34
2023-09-02T07:50:47.205Z,25.16
2023-09-02T07:51:47.904Z,25.19
2023-09-02T07:52:49.026Z,25.12
2023-09-02T07:53:49.529Z,25.01
2023-09-02T07:54:50.318Z,24.93
2023-09-02T07:55:51.036Z,24.79
2023-09-02T07:56:52.296Z,24.71
2023-09-02T07:57:52.618Z,24.62
2023-09-02T07:58:53.159Z,24.55
2023-09-02T07:59:54.388Z,24.55
2023-09-02T08:00:54.565Z,24.56
2023-09-02T08:01:55.483Z,24.56
2023-09-02T08:02:55.847Z,24.5
2023-09-02T08:03:56.114Z,24.56
2023-09-02T08:04:56.774Z,24.62
2023-09-02T08:05:56.542Z,24.59
2023-09-02T08:06:57.472Z,24.69
2023-09-02T08:07:57.971Z,24.56
2023-09-02T08:08:58.935Z,24.62
2023-09-02T08:09:59.535Z,24.51
2023-09-02T08:11:00.044Z,24.53
2023-09-02T08:12:00.395Z,24.55
2023-09-02T08:13:01.528Z,24.37
2023-09-02T08:14:02.027Z,24.16
2023-09-02T08:15:03.259Z,24.03
2023-09-02T08:16:04.221Z,23.86
2023-09-02T08:17:04.078Z,23.82
2023-09-02T08:18:04.889Z,23.76
2023-09-02T08:19:04.887Z,23.71
2023-09-02T08:20:06.235Z,23.64
2023-09-02T08:21:06.976Z,23.59
2023-09-02T08:22:07.499Z,23.62
2023-09-02T08:23:08.069Z,23.54
2023-09-02T08:24:08.334Z,23.59
2023-09-02T08:25:08.487Z,23.66
2023-09-02T08:26:09.351Z,23.62
2023-09-02T08:27:10.444Z,23.63
2023-09-02T08:28:11.374Z,23.58
2023-09-02T08:29:12.088Z,23.49
2023-09-02T08:30:12.802Z,23.47
2023-09-02T08:31:13.801Z,23.48
2023-09-02T08:32:13.876Z,23.48
2023-09-02T08:33:14.841Z,23.47
2023-09-02T08:34:14.720Z,23.54
2023-09-02T08:35:15.947Z,23.48
2023-09-02T08:36:15.886Z,23.58
2023-09-02T08:37:16.736Z,23.62
2023-09-02T08:38:17.674Z,23.56
2023-09-02T08:39:18.388Z,23.48
2023-09-02T08:40:18.912Z,23.51
2023-09-02T08:41:19.635Z,23.49
2023-09-02T08:42:22.476Z,23.48
2023-09-02T08:43:21.582Z,23.58
2023-09-02T08:44:21.362Z,23.59
2023-09-02T08:45:21.996Z,23.56
2023-09-02T08:46:22.637Z,23.63
2023-09-02T08:47:22.811Z,23.58
2023-09-02T08:48:27.069Z,23.64
2023-09-02T08:49:23.840Z,23.69
2023-09-02T08:50:25.099Z,23.63
2023-09-02T08:51:26.023Z,23.63
2023-09-02T08:52:25.770Z,23.59
2023-09-02T08:53:26.479Z,23.59
2023-09-02T08:54:27.236Z,23.54
2023-09-02T08:55:27.790Z,23.62
2023-09-02T08:56:28.118Z,23.62
2023-09-02T08:57:28.999Z,23.67
2023-09-02T08:58:29.269Z,23.69
2023-09-02T08:59:30.014Z,23.76
2023-09-02T09:00:31.065Z,23.73
2023-09-02T09:01:31.127Z,23.79
2023-09-02T09:02:31.898Z,23.7
2023-09-02T09:03:32.869Z,23.73
2023-09-02T09:04:33.900Z,23.79
2023-09-02T09:05:34.717Z,23.84
2023-09-02T09:06:36.791Z,23.96
2023-09-02T09:08:35.901Z,24.81
2023-09-02T09:09:36.837Z,25.43
2023-09-02T09:10:37.555Z,26.13
2023-09-02T09:11:38.456Z,26.66
2023-09-02T09:12:39.166Z,27.29
2023-09-02T09:13:39.946Z,27.83
2023-09-02T09:14:40.475Z,28.37
2023-09-02T09:15:41.284Z,28.55
2023-09-02T09:16:42.135Z,28.86
2023-09-02T09:17:43.124Z,29.22
2023-09-02T09:18:43.735Z,29.47
2023-09-02T09:19:44.466Z,29.58
2023-09-02T09:20:45.853Z,29.71
2023-09-02T09:21:46.619Z,29.57
2023-09-02T09:22:47.350Z,29.3
2023-09-02T09:23:47.706Z,29.1
2023-09-02T09:24:48.451Z,29.05
2023-09-02T09:25:48.661Z,28.8
2023-09-02T09:26:49.791Z,28.86
2023-09-02T09:27:50.488Z,28.8
2023-09-02T09:28:51.598Z,28.9
2023-09-02T09:29:52.129Z,29.03
2023-09-02T09:30:52.822Z,28.97
2023-09-02T09:31:53.614Z,29.22
2023-09-02T09:32:54.248Z,29.24
2023-09-02T09:33:55.573Z,29.46
2023-09-02T09:34:56.104Z,29.67
2023-09-02T09:35:57.275Z,29.73
2023-09-02T09:36:57.907Z,29.92
2023-09-02T09:37:58.612Z,30.06
2023-09-02T09:38:59.561Z,30.24
2023-09-02T09:40:00.153Z,30.54
2023-09-02T09:41:00.817Z,30.56
2023-09-02T09:42:01.747Z,30.8
2023-09-02T09:43:02.086Z,30.77
2023-09-02T09:44:02.281Z,30.89
2023-09-02T09:45:03.038Z,31.07
2023-09-02T09:46:04.663Z,30.99
2023-09-02T09:47:04.940Z,31.26
2023-09-02T09:48:04.956Z,31.33
2023-09-02T09:49:05.330Z,31.26
2023-09-02T09:50:06.131Z,31.15
2023-09-02T09:51:06.416Z,31.04
2023-09-02T09:52:07.374Z,30.95
2023-09-02T09:53:08.161Z,30.7
2023-09-02T09:54:08.304Z,30.74
2023-09-02T09:55:11.900Z,30.7
2023-09-02T09:57:10.651Z,30.98
2023-09-02T09:58:10.582Z,31.18
2023-09-02T09:59:11.319Z,31.44
2023-09-02T10:00:12.439Z,31.52
2023-09-02T10:01:15.280Z,31.48
2023-09-02T10:02:13.220Z,31.52
2023-09-02T10:03:14.148Z,31.59
2023-09-02T10:04:14.413Z,31.74
2023-09-02T10:05:15.398Z,31.78
2023-09-02T10:06:15.626Z,31.66
2023-09-02T10:07:18.497Z,31.7
2023-09-02T10:09:17.625Z,31.82
2023-09-02T10:10:18.435Z,31.92
2023-09-02T10:11:18.949Z,31.86
2023-09-02T10:12:19.759Z,31.79
2023-09-02T10:13:21.227Z,31.63
2023-09-02T10:14:21.741Z,31.57
2023-09-02T10:15:22.452Z,31.55
2023-09-02T10:16:23.289Z,31.25
2023-09-02T10:17:24.154Z,31.07
2023-09-02T10:18:24.744Z,30.99
2023-09-02T10:19:25.703Z,31.17
2023-09-02T10:20:26.452Z,31.25
2023-09-02T10:21:26.716Z,31.48
2023-09-02T10:22:28.727Z,31.57
2023-09-02T10:23:28.722Z,31.72
2023-09-02T10:24:29.238Z,31.74
2023-09-02T10:25:30.098Z,31.93
2023-09-02T10:26:30.719Z,32.02
2023-09-02T10:27:31.628Z,32.16
2023-09-02T10:28:32.627Z,32.29
2023-09-02T10:29:32.541Z,32.23
2023-09-02T10:30:34.526Z,32.44
2023-09-02T10:31:34.581Z,32.57
2023-09-02T10:32:35.860Z,32.49
2023-09-02T10:33:36.685Z,32.38
2023-09-02T10:34:37.242Z,32.44
2023-09-02T10:35:37.961Z,32.3
2023-09-02T10:36:38.922Z,32.34
2023-09-02T10:37:39.242Z,32.29
2023-09-02T10:38:39.623Z,32.3
2023-09-02T10:39:40.689Z,32.16
2023-09-02T10:40:41.651Z,32.3
2023-09-02T10:41:42.376Z,32.37
2023-09-02T10:42:43.595Z,32.42
2023-09-02T10:43:43.943Z,32.57
2023-09-02T10:44:44.875Z,32.63
2023-09-02T10:45:46.035Z,32.72
2023-09-02T10:46:46.424Z,32.75
2023-09-02T10:47:47.655Z,32.81
2023-09-02T10:48:48.239Z,32.88
2023-09-02T10:49:48.984Z,32.86
2023-09-02T10:50:49.494Z,32.93
2023-09-02T10:51:50.800Z,32.94
2023-09-02T10:53:27.505Z,33
2023-09-02T10:54:52.453Z,32.9
2023-09-02T10:55:53.433Z,32.79
2023-09-02T10:56:53.557Z,32.56
2023-09-02T10:57:57.342Z,32.23
2023-09-02T10:58:54.434Z,32.05
2023-09-02T10:59:54.773Z,31.89
2023-09-02T11:00:55.344Z,31.87
2023-09-02T11:01:56.499Z,31.87
2023-09-02T11:02:56.705Z,31.87
2023-09-02T11:03:56.933Z,31.81
2023-09-02T11:04:57.674Z,31.87
2023-09-02T11:05:58.405Z,31.74
2023-09-02T11:06:59.752Z,31.59
2023-09-02T11:07:59.503Z,31.52
2023-09-02T11:09:00.068Z,31.37
2023-09-02T11:10:00.602Z,31.26
2023-09-02T11:11:01.358Z,31.17
2023-09-02T11:12:02.089Z,31.15
2023-09-02T11:13:02.474Z,31.3
2023-09-02T11:14:03.582Z,31.26
2023-09-02T11:15:03.976Z,31.26
2023-09-02T11:16:04.383Z,31.36
2023-09-02T11:17:04.996Z,31.39
2023-09-02T11:18:06.029Z,31.42
2023-09-02T11:19:06.232Z,31.51
2023-09-02T11:20:06.957Z,31.62
2023-09-02T11:21:07.522Z,31.47
2023-09-02T11:22:08.559Z,31.57
2023-09-02T11:23:09.482Z,31.3
2023-09-02T11:24:09.648Z,31.14
2023-09-02T11:25:10.523Z,30.98
2023-09-02T11:26:11.160Z,31.02
2023-09-02T11:27:11.789Z,31
2023-09-02T11:28:12.111Z,30.81
2023-09-02T11:29:12.831Z,30.77
2023-09-02T11:30:13.963Z,30.77
2023-09-02T11:31:14.742Z,30.77
2023-09-02T11:32:15.179Z,30.83
2023-09-02T11:33:16.440Z,30.83
2023-09-02T11:34:16.741Z,30.76
2023-09-02T11:35:21.464Z,30.56
2023-09-02T11:36:18.031Z,30.49
2023-09-02T11:37:19.058Z,30.31
2023-09-02T11:38:20.001Z,30.14
2023-09-02T11:39:20.768Z,30.17
2023-09-02T11:40:21.116Z,30.13
2023-09-02T11:41:26.938Z,30.08
2023-09-02T11:42:22.104Z,29.9
2023-09-02T11:43:23.197Z,29.69
2023-09-02T11:44:23.319Z,29.57
2023-09-02T11:45:23.932Z,29.57
2023-09-02T11:46:24.841Z,29.58
2023-09-02T11:47:26.001Z,29.71
2023-09-02T11:48:26.454Z,29.69
2023-09-02T11:49:27.396Z,29.58
2023-09-02T11:50:28.161Z,29.57
2023-09-02T11:51:28.850Z,29.4
2023-09-02T11:52:29.233Z,29.35
2023-09-02T11:53:29.778Z,29.5
2023-09-02T11:54:30.375Z,29.39
2023-09-02T11:55:31.537Z,29.4
2023-09-02T11:56:32.467Z,29.31
2023-09-02T11:57:33.130Z,29.39
2023-09-02T11:58:33.853Z,29.43
2023-09-02T11:59:36.419Z,29.3
2023-09-02T12:01:36.162Z,29.1
2023-09-02T12:02:36.443Z,29.13
2023-09-02T12:03:37.201Z,29.21
2023-09-02T12:04:37.255Z,29.2
2023-09-02T12:05:38.421Z,29.21
2023-09-02T12:06:39.179Z,29.24
2023-09-02T12:07:40.459Z,29.12
2023-09-02T12:08:40.232Z,29.1
2023-09-02T12:09:40.956Z,29.1
2023-09-02T12:10:41.903Z,28.97
2023-09-02T12:11:42.086Z,29.07
2023-09-02T12:12:43.197Z,29.18
2023-09-02T12:13:43.164Z,29.25
2023-09-02T12:14:44.105Z,29.3
2023-09-02T12:15:44.656Z,29.37
2023-09-02T12:16:45.740Z,29.27
2023-09-02T12:17:46.424Z,29.32
2023-09-02T12:18:46.181Z,29.32
2023-09-02T12:19:47.094Z,29.37
2023-09-02T12:20:47.028Z,29.32
2023-09-02T12:21:47.789Z,29.25
2023-09-02T12:22:48.049Z,29.32
2023-09-02T12:23:47.982Z,29.4
2023-09-02T12:24:48.720Z,29.43
2023-09-02T12:25:49.249Z,29.68
2023-09-02T12:26:50.170Z,29.68
2023-09-02T12:27:50.426Z,29.71
2023-09-02T12:28:51.351Z,29.67
2023-09-02T12:29:51.551Z,29.69
2023-09-02T12:30:52.771Z,29.59
2023-09-02T12:31:53.033Z,29.58
2023-09-02T12:32:53.734Z,29.49
2023-09-02T12:33:54.284Z,29.46
2023-09-02T12:34:54.602Z,29.42
2023-09-02T12:35:55.151Z,29.46
2023-09-02T12:36:55.884Z,29.39
2023-09-02T12:37:56.800Z,29.25
2023-09-02T12:38:57.131Z,29.2
2023-09-02T12:39:57.870Z,29.13
2023-09-02T12:40:58.792Z,29.18
2023-09-02T12:41:59.306Z,29.15
2023-09-02T12:43:00.229Z,29.15
2023-09-02T12:44:00.801Z,29.03
2023-09-02T12:45:04.203Z,28.82
2023-09-02T12:46:02.024Z,28.71
2023-09-02T12:47:02.317Z,28.53
2023-09-02T12:48:02.815Z,28.41
2023-09-02T12:49:03.697Z,28.33
2023-09-02T12:50:04.908Z,28.45
2023-09-02T12:51:05.291Z,28.52
2023-09-02T12:52:05.785Z,28.52
2023-09-02T12:53:07.037Z,28.65
2023-09-02T12:54:07.514Z,28.6
2023-09-02T12:55:08.041Z,28.68
2023-09-02T12:56:11.202Z,28.68
2023-09-02T12:57:09.927Z,28.7
2023-09-02T12:58:10.578Z,28.82
2023-09-02T12:59:11.332Z,28.87
2023-09-02T13:00:11.860Z,28.92
2023-09-02T13:01:12.535Z,28.86
2023-09-02T13:02:13.585Z,28.78
2023-09-02T13:03:13.619Z,28.87
2023-09-02T13:04:14.442Z,28.89
2023-09-02T13:05:15.162Z,28.86
2023-09-02T13:06:16.016Z,28.82
2023-09-02T13:07:16.365Z,28.94
2023-09-02T13:08:19.883Z,29.02
2023-09-02T13:10:18.121Z,29.15
2023-09-02T13:11:18.454Z,29.27
2023-09-02T13:12:19.061Z,29.31
2023-09-02T13:13:20.247Z,29.25
2023-09-02T13:14:20.775Z,29.31
2023-09-02T13:15:21.317Z,29.35
2023-09-02T13:16:21.542Z,29.32
2023-09-02T13:17:22.359Z,29.39
2023-09-02T13:18:22.451Z,29.43
2023-09-02T13:19:22.820Z,29.39
2023-09-02T13:20:23.860Z,29.43
2023-09-02T13:21:23.607Z,29.37
2023-09-02T13:22:24.556Z,29.32
2023-09-02T13:23:25.866Z,29.3
2023-09-02T13:24:25.600Z,29.32
2023-09-02T13:25:26.099Z,29.47
2023-09-02T13:26:26.811Z,29.49
2023-09-02T13:27:27.122Z,29.64
2023-09-02T13:28:28.452Z,29.58
2023-09-02T13:29:28.759Z,29.53
2023-09-02T13:30:29.526Z,29.59
2023-09-02T13:31:30.552Z,29.57
2023-09-02T13:32:30.634Z,29.44
2023-09-02T13:33:30.850Z,29.28
2023-09-02T13:34:31.214Z,29.27
2023-09-02T13:35:31.787Z,29.1
2023-09-02T13:36:32.733Z,28.92
2023-09-02T13:37:33.497Z,28.82
2023-09-02T13:38:35.394Z,28.83
2023-09-02T13:39:34.734Z,28.89
2023-09-02T13:40:35.480Z,28.96
2023-09-02T13:41:36.367Z,29.07
2023-09-02T13:42:37.352Z,29.13
2023-09-02T13:43:38.496Z,29.16
2023-09-02T13:44:40.214Z,29.31
2023-09-02T13:45:39.684Z,29.35
2023-09-02T13:46:39.663Z,29.44
2023-09-02T13:47:40.070Z,29.68
2023-09-02T13:48:40.478Z,29.74
2023-09-02T13:49:41.412Z,29.86
2023-09-02T13:50:41.559Z,29.92
2023-09-02T13:51:42.382Z,29.83
2023-09-02T13:52:43.101Z,29.76
2023-09-02T13:53:44.373Z,29.74
2023-09-02T13:54:45.282Z,29.67
2023-09-02T13:55:46.027Z,29.68
2023-09-02T13:56:46.550Z,29.59